Time;durP1;ratioP1;P1;durP2;ratioP2;P2;SDS_P1;SDS_P2;PMS_P1;PMS_P2;Temp;Humidity;BMP_temperature;BMP_pressure;BME280_temperature;BME280_humidity;BME280_pressure;Samples;Min_cycle;Max_cycle;Signal;HPM_P1;HPM_P2
2023/06/27 00:00:13;;;;;;;;;;;;;;;;;;5066466;28;19991;-46
2023/06/27 05:09:52;;;;;;;;;;;;;;;;;;5064607;28;20402;-47
2023/06/27 05:12:18;;;;;;;;;;;;;;;;;;5067578;28;20003;-47
2023/06/27 05:14:44;;;;;;;;;;;;;;;;;;5068002;28;19912;-50
2023/06/27 05:17:10;;;;;;;;;;;;;;;;;;5067530;28;20607;-46
2023/06/27 05:19:36;;;;;;;;;;;;;;;;;;5068116;28;19919;-46
2023/06/27 05:22:02;;;;;;;;;;;;;;;;;;5067951;28;20390;-48
2023/06/27 05:24:28;;;;;;;;;;;;;;;;;;5067815;28;20054;-46
2023/06/27 05:26:54;;;;;;;;;;;;;;;;;;5067036;28;20405;-50
2023/06/27 05:29:20;;;;;;;;;;;;;;;;;;5066691;28;20399;-49
2023/06/27 05:31:45;;;;;;;;;;;;;;;;;;5076449;28;19912;-51
2023/06/27 05:34:12;;;;;;;;;;;;;;;;;;5089368;28;19908;-47
2023/06/27 05:36:38;;;;;;;;;;;;;;;;;;5089673;28;19912;-50
2023/06/27 05:39:04;;;;;;;;;;;;;;;;;;5089408;28;19914;-48
2023/06/27 05:41:30;;;;;;;;;;;;;;;;;;5069541;28;19939;-46
2023/06/27 05:43:56;;;;;;;;;;;;;;;;;;5068465;28;19944;-49
2023/06/27 05:46:22;;;;;;;;;;;;;;;;;;5068896;28;20413;-46
2023/06/27 05:48:48;;;;;;;;;;;;;;;;;;5068365;28;19913;-52
2023/06/27 05:51:15;;;;;;;;;;;;;;;;;;5068426;28;20002;-51
2023/06/27 05:53:40;;;;;;;;;;;;;;;;;;5067989;28;19927;-50
2023/06/27 05:56:07;;;;;;;;;;;;;;;;;;5069047;28;19912;-47
2023/06/27 05:58:33;;;;;;;;;;;;;;;;;;5068306;28;19943;-47
2023/06/27 06:00:59;;;;;;;;;;;;;;;;;;5068208;28;19924;-50
2023/06/27 06:03:25;;;;;;;;;;;;;;;;;;5068011;28;19944;-48
2023/06/27 06:05:51;;;;;;;;;;;;;;;;;;5068744;28;19947;-47
2023/06/27 06:08:17;;;;;;;;;;;;;;;;;;5067518;28;19963;-49
2023/06/27 06:10:42;;;;;;;;;;;;;;;;;;5071227;28;19954;-49
2023/06/27 06:13:08;;;;;;;;;;;;;;;;;;5088750;28;19920;-47
2023/06/27 06:15:34;;;;;;;;;;;;;;;;;;5089264;28;19917;-46
2023/06/27 06:18:00;;;;;;;;;;;;;;;;;;5088250;28;19920;-47
2023/06/27 06:20:29;;;;;;;;;;;;;;;;;;5088800;28;19912;-51
2023/06/27 06:22:55;;;;;;;;;;;;;;;;;;5057309;28;19933;-46
2023/06/27 06:25:21;;;;;;;;;;;;;;;;;;5064536;28;19912;-47
2023/06/27 06:27:47;;;;;;;;;;;;;;;;;;5058774;28;19913;-47
2023/06/27 06:30:13;;;;;;;;;;;;;;;;;;5066924;28;19920;-46
2023/06/27 06:32:40;;;;;;;;;;;;;;;;;;5063364;28;20292;-47
2023/06/27 06:35:06;;;;;;;;;;;;;;;;;;5065558;28;19974;-48
2023/06/27 06:37:32;;;;;;;;;;;;;;;;;;5067550;28;19916;-46
2023/06/27 06:39:58;;;;;;;;;;;;;;;;;;5068263;28;19947;-47
2023/06/27 06:42:24;;;;;;;;;;;;;;;;;;5068067;28;19913;-51
2023/06/27 06:44:50;;;;;;;;;;;;;;;;;;5065177;28;19921;-50
2023/06/27 06:47:16;;;;;;;;;;;;;;;;;;5068336;28;19956;-49
2023/06/27 06:49:41;;;;;;;;;;;;;;;;;;5065064;28;19913;-48
2023/06/27 06:52:08;;;;;;;;;;;;;;;;;;5066795;28;19912;-40
2023/06/27 06:54:33;;;;;;;;;;;;;;;;;;5072653;28;19912;-40
2023/06/27 06:56:59;;;;;;;;;;;;;;;;;;5085988;28;19931;-40
2023/06/27 06:59:25;;;;;;;;;;;;;;;;;;5089152;28;19912;-40
2023/06/27 07:01:51;;;;;;;;;;;;;;;;;;5089421;28;19914;-40
2023/06/27 07:04:17;;;;;;;;;;;;;;;;;;5089341;28;20020;-40
2023/06/27 07:06:43;;;;;;;;;;;;;;;;;;5086672;28;19908;-40
2023/06/27 07:09:09;;;;;;;;;;;;;;;;;;5067927;28;19916;-40
2023/06/27 07:11:35;;;;;;;;;;;;;;;;;;5058262;28;19920;-41
2023/06/27 07:14:01;;;;;;;;;;;;;;;;;;5066170;28;19912;-40
2023/06/27 07:16:27;;;;;;;;;;;;;;;;;;5054256;28;20458;-39
2023/06/27 07:18:53;;;;;;;;;;;;;;;;;;5083481;28;19999;-40
2023/06/27 07:21:19;;;;;;;;;;;;;;;;;;5071558;28;19952;-40
2023/06/27 07:23:45;;;;;;;;;;;;;;;;;;5069274;28;19969;-40
2023/06/27 07:26:11;;;;;;;;;;;;;;;;;;5070697;28;19913;-39
2023/06/27 07:28:37;;;;;;;;;;;;;;;;;;5069831;28;19999;-40
2023/06/27 07:31:03;;;;;;;;;;;;;;;;;;5070523;28;19928;-40
2023/06/27 07:33:28;;;;;;;;;;;;;;;;;;5070681;28;19912;-39
2023/06/27 07:35:54;;;;;;;;;;;;;;;;;;5068805;28;19915;-40
2023/06/27 07:38:20;;;;;;;;;;;;;;;;;;5070325;28;19939;-40
2023/06/27 07:40:46;;;;;;;;;;;;;;;;;;5071208;28;19912;-46
2023/06/27 07:43:12;;;;;;;;;;;;;;;;;;5068444;28;20003;-49
2023/06/27 07:45:38;;;;;;;;;;;;;;;;;;5053450;28;19944;-48
2023/06/27 07:48:05;;;;;;;;;;;;;;;;;;5069138;28;19953;-50
2023/06/27 07:50:31;;;;;;;;;;;;;;;;;;5054124;28;19920;-48
2023/06/27 07:52:57;;;;;;;;;;;;;;;;;;5070599;28;19913;-45
2023/06/27 07:55:23;;;;;;;;;;;;;;;;;;5070468;28;19931;-47
2023/06/27 07:57:49;;;;;;;;;;;;;;;;;;5069639;28;19912;-47
2023/06/27 08:00:15;;;;;;;;;;;;;;;;;;5070608;28;19913;-46
2023/06/27 08:02:41;;;;;;;;;;;;;;;;;;5069897;28;19919;-50
2023/06/27 08:05:07;;;;;;;;;;;;;;;;;;5070081;28;20295;-49
2023/06/27 08:07:33;;;;;;;;;;;;;;;;;;5070095;28;19913;-48
2023/06/27 08:09:59;;;;;;;;;;;;;;;;;;5068694;28;19919;-48
2023/06/27 08:12:25;;;;;;;;;;;;;;;;;;5069105;28;19920;-45
2023/06/27 08:14:51;;;;;;;;;;;;;;;;;;5069978;28;19909;-46
2023/06/27 08:17:17;;;;;;;;;;;;;;;;;;5054393;28;20019;-48
2023/06/27 08:19:43;;;;;;;;;;;;;;;;;;5063709;28;19917;-48
2023/06/27 08:22:09;;;;;;;;;;;;;;;;;;5080089;28;19930;-47
2023/06/27 08:24:36;;;;;;;;;;;;;;;;;;5072382;28;19942;-48
2023/06/27 08:27:02;;;;;;;;;;;;;;;;;;5073555;28;19912;-46
2023/06/27 08:29:28;;;;;;;;;;;;;;;;;;5069538;28;19920;-47
2023/06/27 08:31:58;;;;;;;;;;;;;;;;;;5070872;28;19912;-46
2023/06/27 08:34:24;;;;;;;;;;;;;;;;;;5066208;28;20287;-47
2023/06/27 08:36:51;;;;;;;;;;;;;;;;;;5074894;28;20660;-49
2023/06/27 08:39:18;;;;;;;;;;;;;;;;;;5090348;28;19909;-46
2023/06/27 08:41:45;;;;;;;;;;;;;;;;;;5089428;28;19958;-45
2023/06/27 08:44:11;;;;;;;;;;;;;;;;;;5088608;28;19924;-47
2023/06/27 08:46:37;;;;;;;;;;;;;;;;;;5052662;28;19917;-47
2023/06/27 08:49:03;;;;;;;;;;;;;;;;;;5049481;28;20008;-48
2023/06/27 08:51:29;;;;;;;;;;;;;;;;;;5049385;28;20078;-48
2023/06/27 08:53:56;;;;;;;;;;;;;;;;;;5062648;28;19964;-47
2023/06/27 08:56:22;;;;;;;;;;;;;;;;;;5068820;28;20387;-48
2023/06/27 08:58:48;;;;;;;;;;;;;;;;;;5069686;28;20314;-48
2023/06/27 09:01:13;;;;;;;;;;;;;;;;;;5069133;28;19991;-47
2023/06/27 09:03:39;;;;;;;;;;;;;;;;;;5068711;28;19917;-48
2023/06/27 09:06:05;;;;;;;;;;;;;;;;;;5068487;28;20003;-46
2023/06/27 09:08:31;;;;;;;;;;;;;;;;;;5066813;28;19912;-46
2023/06/27 09:10:57;;;;;;;;;;;;;;;;;;5068420;28;19912;-47
2023/06/27 09:13:23;;;;;;;;;;;;;;;;;;5060582;28;20390;-48
2023/06/27 09:15:49;;;;;;;;;;;;;;;;;;5048874;28;19916;-45
2023/06/27 09:18:15;;;;;;;;;;;;;;;;;;5051920;28;19912;-46
2023/06/27 09:20:41;;;;;;;;;;;;;;;;;;5068661;28;19919;-47
2023/06/27 09:23:07;;;;;;;;;;;;;;;;;;5068524;28;19948;-47
2023/06/27 09:25:33;;;;;;;;;;;;;;;;;;5068240;28;19943;-47
2023/06/27 09:27:59;;;;;;;;;;;;;;;;;;5069050;28;19913;-47
2023/06/27 09:30:25;;;;;;;;;;;;;;;;;;5077469;28;19912;-46
2023/06/27 09:32:52;;;;;;;;;;;;;;;;;;5081746;28;19967;-47
2023/06/27 09:35:18;;;;;;;;;;;;;;;;;;5068209;28;19916;-46
2023/06/27 09:37:44;;;;;;;;;;;;;;;;;;5068237;28;20371;-47
2023/06/27 09:40:10;;;;;;;;;;;;;;;;;;5066676;28;20043;-46
2023/06/27 09:42:36;;;;;;;;;;;;;;;;;;5068089;28;19955;-47
2023/06/27 09:45:02;;;;;;;;;;;;;;;;;;5068457;28;19912;-51
2023/06/27 09:47:28;;;;;;;;;;;;;;;;;;5053180;28;19919;-46
2023/06/27 09:49:54;;;;;;;;;;;;;;;;;;5068239;28;19947;-50
2023/06/27 09:52:20;;;;;;;;;;;;;;;;;;5063181;28;19912;-46
2023/06/27 09:54:47;;;;;;;;;;;;;;;;;;5047124;28;20432;-46
2023/06/27 09:57:13;;;;;;;;;;;;;;;;;;5046618;28;19939;-46
2023/06/27 09:59:41;;;;;;;;;;;;;;;;;;5054085;28;20481;-47
2023/06/27 10:02:06;;;;;;;;;;;;;;;;;;5065829;28;20354;-45
2023/06/27 10:04:32;;;;;;;;;;;;;;;;;;5066926;28;19909;-48
2023/06/27 10:06:59;;;;;;;;;;;;;;;;;;5067583;28;19909;-50
2023/06/27 10:09:24;;;;;;;;;;;;;;;;;;5066561;28;19914;-47
2023/06/27 10:11:50;;;;;;;;;;;;;;;;;;5066786;28;19995;-48
2023/06/27 10:14:16;;;;;;;;;;;;;;;;;;5073265;28;19954;-46
2023/06/27 10:16:42;;;;;;;;;;;;;;;;;;5067908;28;20007;-49
2023/06/27 10:19:08;;;;;;;;;;;;;;;;;;5067870;28;19991;-46
2023/06/27 10:21:34;;;;;;;;;;;;;;;;;;5067759;28;19909;-46
2023/06/27 10:24:00;;;;;;;;;;;;;;;;;;5068122;28;19951;-46
2023/06/27 10:26:26;;;;;;;;;;;;;;;;;;5067574;28;19962;-45
2023/06/27 10:28:52;;;;;;;;;;;;;;;;;;5084945;28;20402;-49
2023/06/27 10:31:18;;;;;;;;;;;;;;;;;;5063810;28;19913;-48
2023/06/27 10:33:44;;;;;;;;;;;;;;;;;;5065240;28;19920;-46
2023/06/27 10:36:10;;;;;;;;;;;;;;;;;;5061779;28;19939;-48
2023/06/27 10:38:36;;;;;;;;;;;;;;;;;;5051296;28;19920;-49
2023/06/27 10:41:06;;;;;;;;;;;;;;;;;;5050894;28;19971;-50
2023/06/27 10:43:32;;;;;;;;;;;;;;;;;;5070248;28;19923;-47
2023/06/27 10:45:57;;;;;;;;;;;;;;;;;;5067625;28;19913;-46
2023/06/27 10:48:23;;;;;;;;;;;;;;;;;;5055330;28;19912;-47
2023/06/27 10:50:49;;;;;;;;;;;;;;;;;;5058963;28;19999;-49
2023/06/27 10:53:16;;;;;;;;;;;;;;;;;;5053359;28;19936;-46
2023/06/27 10:55:42;;;;;;;;;;;;;;;;;;5051687;28;20004;-47
2023/06/27 10:58:10;;;;;;;;;;;;;;;;;;5071085;28;20007;-49
2023/06/27 11:00:36;;;;;;;;;;;;;;;;;;5062787;28;19924;-47
2023/06/27 11:03:03;;;;;;;;;;;;;;;;;;5052001;28;19920;-46
2023/06/27 11:05:30;;;;;;;;;;;;;;;;;;5052792;28;19987;-47
2023/06/27 11:07:56;;;;;;;;;;;;;;;;;;5071124;28;19913;-48
2023/06/27 11:10:22;;;;;;;;;;;;;;;;;;5067930;28;19985;-48
2023/06/27 11:12:48;;;;;;;;;;;;;;;;;;5076835;28;19916;-48
2023/06/27 11:15:14;;;;;;;;;;;;;;;;;;5069430;28;19927;-49
2023/06/27 11:17:40;;;;;;;;;;;;;;;;;;5071349;28;19933;-48
2023/06/27 11:20:08;;;;;;;;;;;;;;;;;;5072507;28;19927;-48
2023/06/27 11:22:33;;;;;;;;;;;;;;;;;;5070204;28;20563;-48
2023/06/27 11:24:59;;;;;;;;;;;;;;;;;;5069756;28;20007;-50
2023/06/27 11:27:25;;;;;;;;;;;;;;;;;;5052684;28;19932;-47
2023/06/27 11:29:51;;;;;;;;;;;;;;;;;;5070619;28;20027;-48
2023/06/27 11:32:17;;;;;;;;;;;;;;;;;;5070711;28;19962;-51
2023/06/27 11:34:43;;;;;;;;;;;;;;;;;;5083969;28;19912;-46
2023/06/27 11:37:09;;;;;;;;;;;;;;;;;;5089272;28;19912;-50
2023/06/27 11:39:35;;;;;;;;;;;;;;;;;;5088182;28;20291;-46
2023/06/27 11:42:01;;;;;;;;;;;;;;;;;;5089801;28;19915;-48
2023/06/27 11:44:27;;;;;;;;;;;;;;;;;;5076548;28;19916;-48
2023/06/27 11:46:53;;;;;;;;;;;;;;;;;;5069279;28;19912;-51
2023/06/27 11:49:19;;;;;;;;;;;;;;;;;;5067433;28;19956;-46
2023/06/27 11:51:45;;;;;;;;;;;;;;;;;;5070394;28;19912;-47
2023/06/27 11:54:10;;;;;;;;;;;;;;;;;;5066953;28;19994;-50
2023/06/27 11:56:36;;;;;;;;;;;;;;;;;;5049882;28;19974;-50
2023/06/27 11:59:03;;;;;;;;;;;;;;;;;;5075630;28;19923;-47
2023/06/27 12:01:33;;;;;;;;;;;;;;;;;;5090957;28;19946;-45
2023/06/27 12:03:58;;;;;;;;;;;;;;;;;;5079175;28;19948;-48
2023/06/27 12:06:25;;;;;;;;;;;;;;;;;;5081385;28;19948;-47
2023/06/27 12:08:51;;;;;;;;;;;;;;;;;;5069859;28;19935;-49
2023/06/27 12:11:17;;;;;;;;;;;;;;;;;;5071014;28;19985;-45
2023/06/27 12:13:43;;;;;;;;;;;;;;;;;;5072650;28;19995;-48
2023/06/27 12:16:09;;;;;;;;;;;;;;;;;;5070328;28;20431;-46
2023/06/27 12:18:35;;;;;;;;;;;;;;;;;;5072021;28;19981;-47
2023/06/27 12:21:01;;;;;;;;;;;;;;;;;;5072762;28;19912;-50
2023/06/27 12:23:27;;;;;;;;;;;;;;;;;;5072647;28;20666;-46
2023/06/27 12:25:53;;;;;;;;;;;;;;;;;;5073171;28;19992;-47
2023/06/27 12:28:20;;;;;;;;;;;;;;;;;;5069216;28;19912;-46
2023/06/27 12:30:46;;;;;;;;;;;;;;;;;;5069585;28;20704;-47
2023/06/27 12:33:12;;;;;;;;;;;;;;;;;;5075135;28;19920;-45
2023/06/27 12:35:39;;;;;;;;;;;;;;;;;;5066561;28;20007;-49
2023/06/27 12:38:05;;;;;;;;;;;;;;;;;;5065833;28;20482;-48
2023/06/27 12:40:31;;;;;;;;;;;;;;;;;;5049774;28;19917;-48
2023/06/27 12:42:57;;;;;;;;;;;;;;;;;;5065496;28;19918;-47
2023/06/27 12:45:23;;;;;;;;;;;;;;;;;;5069954;28;19916;-50
2023/06/27 12:47:49;;;;;;;;;;;;;;;;;;5070023;28;19993;-48
2023/06/27 12:50:15;;;;;;;;;;;;;;;;;;5060889;28;19968;-48
2023/06/27 12:52:48;;;;;;;;;;;;;;;;;;5069556;28;20438;-48
2023/06/27 12:55:14;;;;;;;;;;;;;;;;;;5073982;28;19955;-48
2023/06/27 12:57:41;;;;;;;;;;;;;;;;;;5089889;28;19920;-48
2023/06/27 13:00:08;;;;;;;;;;;;;;;;;;5080121;28;19936;-47
2023/06/27 13:02:34;;;;;;;;;;;;;;;;;;5076999;28;19912;-47
2023/06/27 13:05:00;;;;;;;;;;;;;;;;;;5089138;28;19922;-46
2023/06/27 13:07:26;;;;;;;;;;;;;;;;;;5074273;28;19955;-48
2023/06/27 13:09:53;;;;;;;;;;;;;;;;;;5077535;28;19949;-49
2023/06/27 13:12:19;;;;;;;;;;;;;;;;;;5069396;28;19920;-46
2023/06/27 13:14:45;;;;;;;;;;;;;;;;;;5066060;28;19918;-49
2023/06/27 13:17:11;;;;;;;;;;;;;;;;;;5067609;28;19920;-47
2023/06/27 13:19:37;;;;;;;;;;;;;;;;;;5077052;28;19935;-49
2023/06/27 13:22:03;;;;;;;;;;;;;;;;;;5066108;28;19962;-48
2023/06/27 13:24:29;;;;;;;;;;;;;;;;;;5067451;28;20051;-49
2023/06/27 13:26:54;;;;;;;;;;;;;;;;;;5077339;28;19956;-45
2023/06/27 13:29:20;;;;;;;;;;;;;;;;;;5069308;28;20159;-48
2023/06/27 13:31:47;;;;;;;;;;;;;;;;;;5050340;28;20406;-48
2023/06/27 13:34:13;;;;;;;;;;;;;;;;;;5066922;28;20379;-45
2023/06/27 13:36:40;;;;;;;;;;;;;;;;;;5063489;28;19912;-45
2023/06/27 13:39:06;;;;;;;;;;;;;;;;;;5065450;28;19920;-48
2023/06/27 13:41:32;;;;;;;;;;;;;;;;;;5047603;28;19939;-45
2023/06/27 13:43:58;;;;;;;;;;;;;;;;;;5048508;28;20011;-47
2023/06/27 13:46:24;;;;;;;;;;;;;;;;;;5067371;28;19909;-49
2023/06/27 13:48:50;;;;;;;;;;;;;;;;;;5067254;28;20279;-47
2023/06/27 13:51:16;;;;;;;;;;;;;;;;;;5067421;28;19912;-47
2023/06/27 13:53:42;;;;;;;;;;;;;;;;;;5067883;28;19908;-46
2023/06/27 13:56:09;;;;;;;;;;;;;;;;;;5067704;28;19913;-39
2023/06/27 13:58:35;;;;;;;;;;;;;;;;;;5066477;28;19955;-39
2023/06/27 14:01:01;;;;;;;;;;;;;;;;;;5065737;28;20434;-40
2023/06/27 14:03:27;;;;;;;;;;;;;;;;;;5064571;28;19920;-39
2023/06/27 14:05:53;;;;;;;;;;;;;;;;;;5065634;28;20280;-39
2023/06/27 14:08:18;;;;;;;;;;;;;;;;;;5065602;28;20477;-39
2023/06/27 14:10:44;;;;;;;;;;;;;;;;;;5066054;28;19908;-40
2023/06/27 14:13:10;;;;;;;;;;;;;;;;;;5066154;28;20032;-40
2023/06/27 14:15:36;;;;;;;;;;;;;;;;;;5065515;28;20306;-41
2023/06/27 14:18:02;;;;;;;;;;;;;;;;;;5065861;28;19912;-40
2023/06/27 14:20:28;;;;;;;;;;;;;;;;;;5065207;28;19913;-41
2023/06/27 14:22:57;;;;;;;;;;;;;;;;;;5064378;28;19916;-39
2023/06/27 14:25:24;;;;;;;;;;;;;;;;;;5067041;28;19958;-41
2023/06/27 14:27:51;;;;;;;;;;;;;;;;;;5069533;28;19918;-42
2023/06/27 14:30:19;;;;;;;;;;;;;;;;;;5069459;28;19909;-41
2023/06/27 14:32:44;;;;;;;;;;;;;;;;;;5069868;28;19908;-41
2023/06/27 14:35:10;;;;;;;;;;;;;;;;;;5068858;28;20644;-44
2023/06/27 14:37:36;;;;;;;;;;;;;;;;;;5068547;28;19970;-40
2023/06/27 14:40:03;;;;;;;;;;;;;;;;;;5068980;28;19913;-40
2023/06/27 14:42:29;;;;;;;;;;;;;;;;;;5069953;28;19913;-40
2023/06/27 14:44:56;;;;;;;;;;;;;;;;;;5070230;28;20429;-40
2023/06/27 14:47:23;;;;;;;;;;;;;;;;;;5072770;28;20022;-40
2023/06/27 14:49:48;;;;;;;;;;;;;;;;;;5070906;28;19917;-40
2023/06/27 14:52:14;;;;;;;;;;;;;;;;;;5072977;28;19931;-39
2023/06/27 14:54:40;;;;;;;;;;;;;;;;;;5070549;28;19935;-40
2023/06/27 14:57:06;;;;;;;;;;;;;;;;;;5053894;28;19971;-39
2023/06/27 14:59:33;;;;;;;;;;;;;;;;;;5070260;28;19909;-41
2023/06/27 15:01:59;;;;;;;;;;;;;;;;;;5051715;28;20410;-39
2023/06/27 15:04:25;;;;;;;;;;;;;;;;;;5070274;28;19916;-41
2023/06/27 15:06:53;;;;;;;;;;;;;;;;;;5071869;28;19912;-41
2023/06/27 15:09:20;;;;;;;;;;;;;;;;;;5069568;28;20007;-40
2023/06/27 15:11:45;;;;;;;;;;;;;;;;;;5070356;28;20300;-40
2023/06/27 15:14:11;;;;;;;;;;;;;;;;;;5071969;28;19917;-40
2023/06/27 15:16:37;;;;;;;;;;;;;;;;;;5071665;28;19954;-40
2023/06/27 15:19:03;;;;;;;;;;;;;;;;;;5070330;28;19912;-40
2023/06/27 15:21:29;;;;;;;;;;;;;;;;;;5070815;28;19916;-40
2023/06/27 15:23:55;;;;;;;;;;;;;;;;;;5070119;28;20003;-41
2023/06/27 15:26:21;;;;;;;;;;;;;;;;;;5053617;28;20351;-39
2023/06/27 15:28:58;;;;;;;;;;;;;;;;;;5055399;28;19918;-40
2023/06/27 15:31:24;;;;;;;;;;;;;;;;;;5072733;28;20007;-40
2023/06/27 15:33:50;;;;;;;;;;;;;;;;;;5072408;28;19950;-40
2023/06/27 15:36:16;;;;;;;;;;;;;;;;;;5069608;28;20357;-40
2023/06/27 15:38:42;;;;;;;;;;;;;;;;;;5067280;28;19912;-40
2023/06/27 15:41:09;;;;;;;;;;;;;;;;;;5066618;28;19908;-39
2023/06/27 15:43:36;;;;;;;;;;;;;;;;;;5067652;28;20102;-41
2023/06/27 15:46:01;;;;;;;;;;;;;;;;;;5067032;28;19912;-39
2023/06/27 15:48:27;;;;;;;;;;;;;;;;;;5067531;28;20006;-39
2023/06/27 15:50:53;;;;;;;;;;;;;;;;;;5067900;28;19912;-41
2023/06/27 15:53:19;;;;;;;;;;;;;;;;;;5068195;28;20303;-39
2023/06/27 15:55:45;;;;;;;;;;;;;;;;;;5068360;28;19987;-41
2023/06/27 15:58:11;;;;;;;;;;;;;;;;;;5068582;28;20376;-41
2023/06/27 16:00:37;;;;;;;;;;;;;;;;;;5049696;28;19915;-40
2023/06/27 16:03:03;;;;;;;;;;;;;;;;;;5068003;28;19999;-39
2023/06/27 16:05:30;;;;;;;;;;;;;;;;;;5049773;28;20319;-39
2023/06/27 16:07:56;;;;;;;;;;;;;;;;;;5067617;28;19908;-41
2023/06/27 16:10:22;;;;;;;;;;;;;;;;;;5067869;28;19919;-40
2023/06/27 16:12:47;;;;;;;;;;;;;;;;;;5067302;28;20005;-39
2023/06/27 16:15:14;;;;;;;;;;;;;;;;;;5068199;28;20298;-39
2023/06/27 16:17:40;;;;;;;;;;;;;;;;;;5068290;28;19916;-40
2023/06/27 16:20:06;;;;;;;;;;;;;;;;;;5067277;28;19919;-40
2023/06/27 16:22:32;;;;;;;;;;;;;;;;;;5067236;28;19920;-39
2023/06/27 16:24:59;;;;;;;;;;;;;;;;;;5067580;28;19974;-39
2023/06/27 16:27:25;;;;;;;;;;;;;;;;;;5066492;28;19963;-39
2023/06/27 16:29:51;;;;;;;;;;;;;;;;;;5066608;28;20383;-39
2023/06/27 16:32:17;;;;;;;;;;;;;;;;;;5067093;28;19912;-41
2023/06/27 16:34:43;;;;;;;;;;;;;;;;;;5067239;28;19951;-41
2023/06/27 16:37:10;;;;;;;;;;;;;;;;;;5065558;28;19916;-40
2023/06/27 16:39:36;;;;;;;;;;;;;;;;;;5067230;28;19960;-41
2023/06/27 16:42:03;;;;;;;;;;;;;;;;;;5067451;28;19936;-40
2023/06/27 16:44:29;;;;;;;;;;;;;;;;;;5066973;28;19909;-40
2023/06/27 16:46:55;;;;;;;;;;;;;;;;;;5067008;28;19912;-40
2023/06/27 16:49:20;;;;;;;;;;;;;;;;;;5066691;28;19919;-41
2023/06/27 16:51:46;;;;;;;;;;;;;;;;;;5066843;28;20015;-41
2023/06/27 16:54:12;;;;;;;;;;;;;;;;;;5067667;28;19961;-40
2023/06/27 16:56:39;;;;;;;;;;;;;;;;;;5066763;28;19908;-40
2023/06/27 16:59:05;;;;;;;;;;;;;;;;;;5066666;28;19971;-40
2023/06/27 17:01:31;;;;;;;;;;;;;;;;;;5066733;28;20414;-41
2023/06/27 17:03:57;;;;;;;;;;;;;;;;;;5066685;28;19965;-40
2023/06/27 17:06:23;;;;;;;;;;;;;;;;;;5066381;28;20386;-40
2023/06/27 17:08:49;;;;;;;;;;;;;;;;;;5066349;28;19908;-40
2023/06/27 17:11:15;;;;;;;;;;;;;;;;;;5066838;28;19920;-42
2023/06/27 17:13:41;;;;;;;;;;;;;;;;;;5067045;28;19931;-40
2023/06/27 17:16:07;;;;;;;;;;;;;;;;;;5066416;28;19915;-41
2023/06/27 17:18:33;;;;;;;;;;;;;;;;;;5066348;28;20295;-40
2023/06/27 17:20:59;;;;;;;;;;;;;;;;;;5066456;28;19920;-40
2023/06/27 17:23:25;;;;;;;;;;;;;;;;;;5066407;28;19960;-40
2023/06/27 17:25:52;;;;;;;;;;;;;;;;;;5066378;28;19917;-40
2023/06/27 17:28:19;;;;;;;;;;;;;;;;;;5065960;28;19947;-40
2023/06/27 17:30:45;;;;;;;;;;;;;;;;;;5048915;28;19927;-40
2023/06/27 17:33:12;;;;;;;;;;;;;;;;;;5067097;28;19927;-40
2023/06/27 17:35:38;;;;;;;;;;;;;;;;;;5066084;28;20350;-41
2023/06/27 17:38:04;;;;;;;;;;;;;;;;;;5065923;28;20012;-40
2023/06/27 17:40:31;;;;;;;;;;;;;;;;;;5065923;28;19919;-40
2023/06/27 17:42:56;;;;;;;;;;;;;;;;;;5066024;28;19909;-42
2023/06/27 17:45:22;;;;;;;;;;;;;;;;;;5066094;28;19908;-41
2023/06/27 17:47:48;;;;;;;;;;;;;;;;;;5066077;28;19916;-40
2023/06/27 17:50:14;;;;;;;;;;;;;;;;;;5066274;28;20096;-41
2023/06/27 17:52:40;;;;;;;;;;;;;;;;;;5066426;28;20454;-40
2023/06/27 17:55:06;;;;;;;;;;;;;;;;;;5065807;28;19916;-40
2023/06/27 17:57:32;;;;;;;;;;;;;;;;;;5065641;28;20015;-41
2023/06/27 17:59:58;;;;;;;;;;;;;;;;;;5065144;28;19916;-40
2023/06/27 18:02:24;;;;;;;;;;;;;;;;;;5065682;28;19919;-40
2023/06/27 18:04:50;;;;;;;;;;;;;;;;;;5066169;28;19916;-40
2023/06/27 18:07:16;;;;;;;;;;;;;;;;;;5065594;28;19912;-41
2023/06/27 18:09:41;;;;;;;;;;;;;;;;;;5066292;28;19920;-40
2023/06/27 18:12:07;;;;;;;;;;;;;;;;;;5065685;28;19916;-41
2023/06/27 18:14:34;;;;;;;;;;;;;;;;;;5065518;28;19956;-40
2023/06/27 18:16:59;;;;;;;;;;;;;;;;;;5065721;28;19974;-40
2023/06/27 18:19:26;;;;;;;;;;;;;;;;;;5065336;28;20480;-41
2023/06/27 18:21:52;;;;;;;;;;;;;;;;;;5065963;28;20021;-41
2023/06/27 18:24:18;;;;;;;;;;;;;;;;;;5065630;28;19916;-41
2023/06/27 18:26:44;;;;;;;;;;;;;;;;;;5065936;28;19909;-41
2023/06/27 18:29:10;;;;;;;;;;;;;;;;;;5065971;28;20007;-40
2023/06/27 18:31:36;;;;;;;;;;;;;;;;;;5065489;28;19913;-40
2023/06/27 18:34:02;;;;;;;;;;;;;;;;;;5065605;28;19920;-41
2023/06/27 18:36:28;;;;;;;;;;;;;;;;;;5065210;28;19909;-40
2023/06/27 18:38:54;;;;;;;;;;;;;;;;;;5065381;28;19913;-40
2023/06/27 18:41:21;;;;;;;;;;;;;;;;;;5065813;28;20291;-40
2023/06/27 18:43:48;;;;;;;;;;;;;;;;;;5065396;28;19908;-40
2023/06/27 18:46:14;;;;;;;;;;;;;;;;;;5065949;28;19908;-40
2023/06/27 18:48:40;;;;;;;;;;;;;;;;;;5065875;28;19923;-40
2023/06/27 18:51:05;;;;;;;;;;;;;;;;;;5065030;28;20410;-40
2023/06/27 18:53:31;;;;;;;;;;;;;;;;;;5065362;28;19991;-40
2023/06/27 18:55:57;;;;;;;;;;;;;;;;;;5065368;28;20381;-40
2023/06/27 18:58:24;;;;;;;;;;;;;;;;;;5065053;28;19993;-40
2023/06/27 19:00:50;;;;;;;;;;;;;;;;;;5065085;28;19970;-40
2023/06/27 19:03:16;;;;;;;;;;;;;;;;;;5064896;28;20379;-40
2023/06/27 19:05:42;;;;;;;;;;;;;;;;;;5065399;28;19912;-40
2023/06/27 19:08:09;;;;;;;;;;;;;;;;;;5065494;28;19904;-40
2023/06/27 19:10:35;;;;;;;;;;;;;;;;;;5065196;28;19920;-40
2023/06/27 19:13:04;;;;;;;;;;;;;;;;;;5068757;28;19916;-40
2023/06/27 19:15:30;;;;;;;;;;;;;;;;;;5069014;28;19935;-40
2023/06/27 19:17:56;;;;;;;;;;;;;;;;;;5068786;28;20391;-40
2023/06/27 19:20:22;;;;;;;;;;;;;;;;;;5068643;28;20337;-39
2023/06/27 19:22:48;;;;;;;;;;;;;;;;;;5050529;28;20359;-40
2023/06/27 19:25:14;;;;;;;;;;;;;;;;;;5069170;28;19936;-47
2023/06/27 19:27:40;;;;;;;;;;;;;;;;;;5068522;28;20003;-39
2023/06/27 19:30:05;;;;;;;;;;;;;;;;;;5068468;28;19916;-40
2023/06/27 19:32:31;;;;;;;;;;;;;;;;;;5068383;28;19912;-40
2023/06/27 19:34:57;;;;;;;;;;;;;;;;;;5068443;28;19908;-40
2023/06/27 19:37:23;;;;;;;;;;;;;;;;;;5068407;28;20402;-41
2023/06/27 19:39:49;;;;;;;;;;;;;;;;;;5068233;28;19908;-40
2023/06/27 19:42:15;;;;;;;;;;;;;;;;;;5068386;28;19908;-40
2023/06/27 19:44:42;;;;;;;;;;;;;;;;;;5068794;28;19912;-40
2023/06/27 19:47:08;;;;;;;;;;;;;;;;;;5068344;28;19909;-40
2023/06/27 19:49:35;;;;;;;;;;;;;;;;;;5067780;28;19916;-40
2023/06/27 19:52:01;;;;;;;;;;;;;;;;;;5068233;28;19958;-40
2023/06/27 19:54:27;;;;;;;;;;;;;;;;;;5067712;28;19908;-40
2023/06/27 19:56:53;;;;;;;;;;;;;;;;;;5067849;28;19962;-40
2023/06/27 19:59:19;;;;;;;;;;;;;;;;;;5067881;28;20015;-39
2023/06/27 20:01:45;;;;;;;;;;;;;;;;;;5067944;28;19908;-40
2023/06/27 20:04:11;;;;;;;;;;;;;;;;;;5068353;28;20329;-39
2023/06/27 20:06:37;;;;;;;;;;;;;;;;;;5068299;28;19962;-40
2023/06/27 20:09:04;;;;;;;;;;;;;;;;;;5067594;28;19955;-39
2023/06/27 20:11:30;;;;;;;;;;;;;;;;;;5067805;28;20007;-40
2023/06/27 20:13:57;;;;;;;;;;;;;;;;;;5067721;28;20011;-39
2023/06/27 20:16:23;;;;;;;;;;;;;;;;;;5067739;28;20402;-40
2023/06/27 20:18:50;;;;;;;;;;;;;;;;;;5067271;28;19913;-40
2023/06/27 20:21:16;;;;;;;;;;;;;;;;;;5067626;28;19916;-39
2023/06/27 20:23:44;;;;;;;;;;;;;;;;;;5067475;28;20054;-39
2023/06/27 20:26:11;;;;;;;;;;;;;;;;;;5068137;28;19916;-39
2023/06/27 20:28:38;;;;;;;;;;;;;;;;;;5067512;28;19999;-40
2023/06/27 20:31:04;;;;;;;;;;;;;;;;;;5067410;28;20294;-40
2023/06/27 20:33:29;;;;;;;;;;;;;;;;;;5067212;28;19909;-40
2023/06/27 20:35:55;;;;;;;;;;;;;;;;;;5067251;28;20367;-40
2023/06/27 20:38:21;;;;;;;;;;;;;;;;;;5067173;28;19916;-40
2023/06/27 20:40:47;;;;;;;;;;;;;;;;;;5067175;28;19908;-39
2023/06/27 20:43:13;;;;;;;;;;;;;;;;;;5062969;28;20003;-39
2023/06/27 20:45:39;;;;;;;;;;;;;;;;;;5061666;28;20003;-40
2023/06/27 20:48:05;;;;;;;;;;;;;;;;;;5058061;28;20431;-40
2023/06/27 20:50:31;;;;;;;;;;;;;;;;;;5058590;28;19966;-39
2023/06/27 20:52:57;;;;;;;;;;;;;;;;;;5062426;28;19916;-40
2023/06/27 20:55:23;;;;;;;;;;;;;;;;;;5076336;28;20015;-40
2023/06/27 20:57:49;;;;;;;;;;;;;;;;;;5067076;28;20410;-41
2023/06/27 21:00:14;;;;;;;;;;;;;;;;;;5068320;28;20000;-40
2023/06/27 21:02:40;;;;;;;;;;;;;;;;;;5074041;28;19950;-46
2023/06/27 21:05:06;;;;;;;;;;;;;;;;;;5079101;28;19947;-47
2023/06/27 21:07:32;;;;;;;;;;;;;;;;;;5065771;28;19916;-48
2023/06/27 21:09:58;;;;;;;;;;;;;;;;;;5078467;28;19912;-47
2023/06/27 21:12:24;;;;;;;;;;;;;;;;;;5051101;28;19921;-46
2023/06/27 21:14:51;;;;;;;;;;;;;;;;;;5066338;28;19999;-48
2023/06/27 21:17:17;;;;;;;;;;;;;;;;;;5066305;28;20000;-47
2023/06/27 21:19:43;;;;;;;;;;;;;;;;;;5065338;28;20027;-47
2023/06/27 21:22:09;;;;;;;;;;;;;;;;;;5066379;28;20351;-47
2023/06/27 21:24:35;;;;;;;;;;;;;;;;;;5066314;28;19923;-47
2023/06/27 21:27:02;;;;;;;;;;;;;;;;;;5055238;28;19913;-46
2023/06/27 21:29:28;;;;;;;;;;;;;;;;;;5057397;28;19913;-47
2023/06/27 21:31:54;;;;;;;;;;;;;;;;;;5047020;28;19912;-46
2023/06/27 21:34:20;;;;;;;;;;;;;;;;;;5070051;28;19973;-49
2023/06/27 21:36:47;;;;;;;;;;;;;;;;;;5085868;28;20386;-51
2023/06/27 21:39:13;;;;;;;;;;;;;;;;;;5065922;28;19920;-47
2023/06/27 21:41:38;;;;;;;;;;;;;;;;;;5066035;28;20287;-46
2023/06/27 21:44:04;;;;;;;;;;;;;;;;;;5066284;28;19916;-46